createdAt,value
2023-01-31T06:03:09.891Z,8.60
2023-01-31T06:13:17.710Z,8.50
2023-01-31T06:18:22.765Z,8.60
2023-01-31T06:28:30.817Z,8.60
2023-01-31T06:33:46.203Z,8.60
2023-01-31T06:38:51.911Z,8.60
2023-01-31T06:43:56.247Z,8.60
2023-01-31T06:49:01.701Z,8.60
2023-01-31T06:54:05.965Z,8.60
2023-01-31T06:59:09.794Z,8.60
2023-01-31T07:04:14.850Z,8.60
2023-01-31T07:09:18.902Z,8.70
2023-01-31T07:14:22.573Z,8.70
2023-01-31T07:19:27.661Z,8.70
2023-01-31T07:24:31.471Z,8.60
2023-01-31T07:29:36.831Z,8.60
2023-01-31T07:34:43.331Z,8.50
2023-01-31T07:39:46.989Z,8.50
2023-01-31T07:44:51.021Z,8.50
2023-01-31T07:49:56.051Z,8.50
2023-01-31T07:54:59.704Z,8.50
2023-01-31T08:00:03.728Z,8.60
2023-01-31T08:05:16.469Z,8.70
2023-01-31T08:10:20.307Z,8.70
2023-01-31T08:15:23.975Z,8.70
2023-01-31T08:20:29.442Z,8.80
2023-01-31T08:25:33.117Z,8.80
2023-01-31T08:30:40.343Z,8.80
2023-01-31T08:35:45.379Z,8.80
2023-01-31T08:40:50.239Z,8.90
2023-01-31T08:45:53.948Z,8.80
2023-01-31T08:51:02.182Z,8.90
2023-01-31T08:56:08.692Z,9.00
2023-01-31T09:01:14.621Z,9.10
2023-01-31T09:06:21.683Z,9.10
2023-01-31T09:11:25.347Z,9.10
2023-01-31T09:16:29.278Z,9.20
2023-01-31T09:21:34.365Z,9.20
2023-01-31T09:26:38.192Z,9.30
2023-01-31T09:31:42.113Z,9.30
2023-01-31T09:36:48.097Z,9.40
2023-01-31T09:41:54.564Z,9.50
2023-01-31T09:47:01.037Z,9.60
2023-01-31T09:52:06.216Z,9.70
2023-01-31T09:57:26.809Z,9.90
2023-01-31T10:03:03.537Z,10.20
2023-01-31T10:08:16.469Z,10.40
2023-01-31T10:13:26.036Z,10.40
2023-01-31T10:18:32.693Z,10.70
2023-01-31T10:23:43.166Z,11.10
2023-01-31T10:28:52.305Z,11.70
2023-01-31T10:34:00.489Z,12.30
2023-01-31T10:39:12.318Z,12.60
2023-01-31T10:44:25.365Z,12.90
2023-01-31T10:49:30.407Z,13.40
2023-01-31T10:54:48.972Z,13.90
2023-01-31T10:59:54.293Z,14.10
2023-01-31T11:04:59.245Z,14.40
2023-01-31T11:10:23.509Z,14.60
2023-01-31T11:15:29.919Z,15.10
2023-01-31T11:20:37.666Z,15.70
2023-01-31T11:25:49.893Z,16.20
2023-01-31T11:30:56.276Z,16.00
2023-01-31T11:35:59.970Z,15.80
2023-01-31T11:41:29.001Z,15.70
2023-01-31T11:46:33.121Z,15.50
2023-01-31T11:51:37.414Z,15.40
2023-01-31T11:56:42.492Z,15.60
2023-01-31T12:01:48.782Z,15.70
2023-01-31T12:07:04.427Z,15.60
2023-01-31T12:12:29.970Z,15.50
2023-01-31T12:17:42.682Z,15.90
2023-01-31T12:22:51.614Z,16.10
2023-01-31T12:28:07.999Z,16.40
2023-01-31T12:33:25.780Z,16.90
2023-01-31T12:38:50.581Z,17.40
2023-01-31T12:44:10.519Z,17.80
2023-01-31T12:49:57.293Z,17.80
2023-01-31T12:55:19.711Z,18.00
2023-01-31T13:00:36.076Z,18.30
2023-01-31T13:05:46.796Z,18.60
2023-01-31T13:10:54.059Z,18.30
2023-01-31T13:16:04.082Z,18.30
2023-01-31T13:21:10.555Z,18.10
2023-01-31T13:26:21.130Z,18.10
2023-01-31T13:31:29.081Z,18.00
2023-01-31T13:36:36.616Z,17.60
2023-01-31T13:41:40.845Z,17.30
2023-01-31T13:46:52.610Z,17.10
2023-01-31T13:51:59.372Z,16.80
2023-01-31T13:57:04.788Z,16.20
2023-01-31T14:02:20.197Z,16.00
2023-01-31T14:07:25.194Z,15.60
2023-01-31T14:12:37.077Z,15.50
2023-01-31T14:18:02.722Z,15.40
2023-01-31T14:23:31.899Z,15.40
2023-01-31T14:28:43.659Z,15.20
2023-01-31T14:33:50.607Z,15.20
2023-01-31T14:39:24.126Z,14.90
2023-01-31T14:44:37.817Z,14.80
2023-01-31T14:50:06.614Z,14.80
2023-01-31T14:55:27.372Z,14.80
2023-01-31T15:00:33.471Z,14.90
2023-01-31T15:05:45.456Z,14.70
2023-01-31T15:11:03.219Z,14.50
2023-01-31T15:16:11.927Z,14.30
2023-01-31T15:21:24.428Z,14.30
2023-01-31T15:26:31.274Z,14.20
2023-01-31T15:31:41.140Z,14.10
2023-01-31T15:36:53.892Z,14.10
2023-01-31T15:41:57.593Z,14.00
2023-01-31T15:47:03.589Z,14.00
2023-01-31T15:52:14.543Z,14.00
2023-01-31T15:57:19.245Z,14.00
2023-01-31T16:02:28.473Z,13.90
2023-01-31T16:07:33.621Z,13.90
2023-01-31T16:12:42.702Z,13.80
2023-01-31T16:17:46.688Z,13.70
2023-01-31T16:22:58.648Z,13.70
2023-01-31T16:28:06.320Z,13.80
2023-01-31T16:33:17.676Z,13.50
2023-01-31T16:38:27.961Z,13.30
2023-01-31T16:43:34.171Z,13.30
2023-01-31T16:48:40.426Z,13.20
2023-01-31T16:53:45.921Z,13.10
2023-01-31T16:58:52.656Z,12.90
2023-01-31T17:04:05.826Z,12.80
2023-01-31T17:09:15.664Z,12.60
2023-01-31T17:14:19.325Z,12.40
2023-01-31T17:19:23.302Z,12.30
2023-01-31T17:24:28.570Z,12.20
2023-01-31T17:29:32.244Z,12.10
2023-01-31T17:34:35.942Z,12.10
2023-01-31T17:39:41.273Z,12.00
2023-01-31T17:44:45.317Z,12.00
2023-01-31T17:49:48.951Z,12.00
2023-01-31T17:54:53.999Z,12.00
2023-01-31T17:59:57.727Z,12.00
2023-01-31T18:05:01.383Z,12.00
2023-01-31T18:10:07.869Z,12.00
2023-01-31T18:15:12.359Z,12.10
2023-01-31T18:20:17.223Z,12.10
2023-01-31T18:25:22.587Z,12.00
2023-01-31T18:30:26.836Z,12.00
2023-01-31T18:35:30.500Z,12.00
2023-01-31T18:40:35.579Z,11.90
2023-01-31T18:45:39.446Z,11.80
2023-01-31T18:50:43.143Z,11.70
2023-01-31T18:55:48.167Z,11.70
2023-01-31T19:00:51.869Z,11.60
2023-01-31T19:05:55.582Z,11.60
2023-01-31T19:11:06.578Z,11.50
2023-01-31T19:16:12.340Z,11.50
2023-01-31T19:21:17.205Z,11.50
2023-01-31T19:26:22.352Z,11.40
2023-01-31T19:31:28.186Z,11.40
2023-01-31T19:36:34.086Z,11.30
2023-01-31T19:41:39.511Z,11.40
2023-01-31T19:46:44.176Z,11.40
2023-01-31T19:51:47.871Z,11.40
2023-01-31T19:56:53.451Z,11.40
2023-01-31T20:01:57.257Z,11.40
2023-01-31T20:07:00.917Z,11.50
2023-01-31T20:12:06.628Z,11.40
2023-01-31T20:17:10.292Z,11.40
2023-01-31T20:22:15.737Z,11.40
2023-01-31T20:27:21.211Z,11.40
2023-01-31T20:32:25.236Z,11.50
2023-01-31T20:37:29.482Z,11.50
2023-01-31T20:42:35.028Z,11.60
2023-01-31T20:47:38.710Z,11.60
2023-01-31T20:52:42.448Z,11.70
2023-01-31T20:57:50.823Z,11.70
2023-01-31T21:02:54.555Z,11.60
2023-01-31T21:07:58.239Z,11.70
2023-01-31T21:13:03.252Z,11.70
2023-01-31T21:18:06.989Z,11.80
2023-01-31T21:23:10.908Z,11.70
2023-01-31T21:28:15.992Z,11.60
2023-01-31T21:33:19.706Z,11.60
2023-01-31T21:38:23.355Z,11.60
2023-01-31T21:43:28.429Z,11.60
2023-01-31T21:48:32.207Z,11.50
2023-01-31T21:53:36.264Z,11.50
2023-01-31T21:58:41.840Z,11.50
2023-01-31T22:03:48.191Z,11.50
2023-01-31T22:08:52.923Z,11.40
2023-01-31T22:13:58.033Z,11.40
2023-01-31T22:19:02.117Z,11.30
2023-01-31T22:24:07.373Z,11.30
2023-01-31T22:29:15.281Z,11.30
2023-01-31T22:34:18.987Z,11.20
2023-01-31T22:39:22.739Z,11.20
2023-01-31T22:44:27.762Z,11.10
2023-01-31T22:49:31.393Z,11.10
2023-01-31T22:54:35.065Z,11.00
2023-01-31T22:59:40.088Z,10.80
2023-01-31T23:04:43.790Z,10.80
2023-01-31T23:09:48.935Z,10.70
2023-01-31T23:14:54.254Z,10.80
2023-01-31T23:19:58.013Z,10.80
2023-01-31T23:25:01.710Z,10.80
